sensor_id;sensor_type;location;lat;lon;timestamp;pressure;altitude;pressure_sealevel;temperature
69186;BMP280;56298;49.246;9.410;2023-12-07T00:01:38;99753.28;;;2.65
69186;BMP280;56298;49.246;9.410;2023-12-07T00:04:03;99753.78;;;2.67
69186;BMP280;56298;49.246;9.410;2023-12-07T00:06:29;99746.13;;;2.74
69186;BMP280;56298;49.246;9.410;2023-12-07T00:08:54;99758.00;;;2.78
69186;BMP280;56298;49.246;9.410;2023-12-07T00:11:22;99754.25;;;2.74
69186;BMP280;56298;49.246;9.410;2023-12-07T00:13:48;99763.16;;;2.75
69186;BMP280;56298;49.246;9.410;2023-12-07T00:16:13;99755.28;;;2.78
69186;BMP280;56298;49.246;9.410;2023-12-07T00:18:38;99752.31;;;2.75
69186;BMP280;56298;49.246;9.410;2023-12-07T00:21:04;99760.75;;;2.73
69186;BMP280;56298;49.246;9.410;2023-12-07T00:23:29;99769.06;;;2.82
69186;BMP280;56298;49.246;9.410;2023-12-07T00:25:54;99761.50;;;2.79
69186;BMP280;56298;49.246;9.410;2023-12-07T00:28:20;99766.88;;;2.84
69186;BMP280;56298;49.246;9.410;2023-12-07T00:30:45;99759.22;;;2.91
69186;BMP280;56298;49.246;9.410;2023-12-07T00:33:10;99759.56;;;2.85
69186;BMP280;56298;49.246;9.410;2023-12-07T00:35:36;99767.72;;;2.80
69186;BMP280;56298;49.246;9.410;2023-12-07T00:38:01;99762.50;;;2.88
69186;BMP280;56298;49.246;9.410;2023-12-07T00:40:27;99772.81;;;2.86
69186;BMP280;56298;49.246;9.410;2023-12-07T00:42:52;99777.09;;;2.92
69186;BMP280;56298;49.246;9.410;2023-12-07T00:45:18;99781.72;;;2.92
69186;BMP280;56298;49.246;9.410;2023-12-07T00:47:43;99783.31;;;2.93
69186;BMP280;56298;49.246;9.410;2023-12-07T00:50:11;99773.53;;;2.97
69186;BMP280;56298;49.246;9.410;2023-12-07T00:52:37;99770.81;;;2.97
69186;BMP280;56298;49.246;9.410;2023-12-07T00:55:02;99769.53;;;2.89
69186;BMP280;56298;49.246;9.410;2023-12-07T00:57:27;99777.63;;;2.89
69186;BMP280;56298;49.246;9.410;2023-12-07T00:59:53;99786.69;;;2.80
69186;BMP280;56298;49.246;9.410;2023-12-07T01:02:18;99781.28;;;2.80
69186;BMP280;56298;49.246;9.410;2023-12-07T01:04:44;99788.84;;;2.83
69186;BMP280;56298;49.246;9.410;2023-12-07T01:07:09;99790.53;;;2.73
69186;BMP280;56298;49.246;9.410;2023-12-07T01:09:34;99796.25;;;2.72
69186;BMP280;56298;49.246;9.410;2023-12-07T01:12:01;99802.06;;;2.60
69186;BMP280;56298;49.246;9.410;2023-12-07T01:14:26;99798.75;;;2.63
69186;BMP280;56298;49.246;9.410;2023-12-07T01:16:51;99804.75;;;2.60
69186;BMP280;56298;49.246;9.410;2023-12-07T01:19:17;99811.50;;;2.62
69186;BMP280;56298;49.246;9.410;2023-12-07T01:21:42;99817.16;;;2.66
69186;BMP280;56298;49.246;9.410;2023-12-07T01:24:08;99817.47;;;2.59
69186;BMP280;56298;49.246;9.410;2023-12-07T01:26:33;99814.44;;;2.66
69186;BMP280;56298;49.246;9.410;2023-12-07T01:28:58;99814.91;;;2.73
69186;BMP280;56298;49.246;9.410;2023-12-07T01:31:24;99822.22;;;2.73
69186;BMP280;56298;49.246;9.410;2023-12-07T01:33:49;99821.47;;;2.67
69186;BMP280;56298;49.246;9.410;2023-12-07T01:36:14;99829.81;;;2.71
69186;BMP280;56298;49.246;9.410;2023-12-07T01:38:39;99832.22;;;2.72
69186;BMP280;56298;49.246;9.410;2023-12-07T01:41:05;99823.91;;;2.69
69186;BMP280;56298;49.246;9.410;2023-12-07T01:43:30;99827.16;;;2.65
69186;BMP280;56298;49.246;9.410;2023-12-07T01:45:57;99826.88;;;2.67
69186;BMP280;56298;49.246;9.410;2023-12-07T01:48:24;99831.84;;;2.60
69186;BMP280;56298;49.246;9.410;2023-12-07T01:50:52;99826.94;;;2.62
69186;BMP280;56298;49.246;9.410;2023-12-07T01:53:18;99826.94;;;2.62
69186;BMP280;56298;49.246;9.410;2023-12-07T01:55:43;99831.59;;;2.51
69186;BMP280;56298;49.246;9.410;2023-12-07T01:58:09;99826.41;;;2.60
69186;BMP280;56298;49.246;9.410;2023-12-07T02:00:35;99829.19;;;2.49
69186;BMP280;56298;49.246;9.410;2023-12-07T02:03:02;99821.41;;;2.43
69186;BMP280;56298;49.246;9.410;2023-12-07T02:05:29;99829.31;;;2.34
69186;BMP280;56298;49.246;9.410;2023-12-07T02:07:54;99823.31;;;2.37
69186;BMP280;56298;49.246;9.410;2023-12-07T02:10:19;99827.91;;;2.36
69186;BMP280;56298;49.246;9.410;2023-12-07T02:12:46;99820.97;;;2.30
69186;BMP280;56298;49.246;9.410;2023-12-07T02:15:11;99824.53;;;2.20
69186;BMP280;56298;49.246;9.410;2023-12-07T02:17:51;99826.72;;;2.18
69186;BMP280;56298;49.246;9.410;2023-12-07T02:20:28;99828.38;;;2.14
69186;BMP280;56298;49.246;9.410;2023-12-07T02:22:56;99837.59;;;2.08
69186;BMP280;56298;49.246;9.410;2023-12-07T02:25:31;99834.34;;;2.06
69186;BMP280;56298;49.246;9.410;2023-12-07T02:27:57;99833.25;;;2.07
69186;BMP280;56298;49.246;9.410;2023-12-07T02:30:22;99838.13;;;2.10
69186;BMP280;56298;49.246;9.410;2023-12-07T02:32:48;99827.56;;;2.08
69186;BMP280;56298;49.246;9.410;2023-12-07T02:35:13;99829.19;;;2.15
69186;BMP280;56298;49.246;9.410;2023-12-07T02:37:48;99828.38;;;2.14
69186;BMP280;56298;49.246;9.410;2023-12-07T02:40:18;99833.53;;;2.10
69186;BMP280;56298;49.246;9.410;2023-12-07T02:42:44;99829.34;;;1.89
69186;BMP280;56298;49.246;9.410;2023-12-07T02:45:12;99828.03;;;1.81
69186;BMP280;56298;49.246;9.410;2023-12-07T02:47:38;99832.88;;;1.79
69186;BMP280;56298;49.246;9.410;2023-12-07T02:50:06;99833.50;;;1.60
69186;BMP280;56298;49.246;9.410;2023-12-07T02:52:32;99838.41;;;1.53
69186;BMP280;56298;49.246;9.410;2023-12-07T02:54:58;99835.41;;;1.54
69186;BMP280;56298;49.246;9.410;2023-12-07T02:57:23;99832.47;;;1.45
69186;BMP280;56298;49.246;9.410;2023-12-07T02:59:48;99831.72;;;1.35
69186;BMP280;56298;49.246;9.410;2023-12-07T03:02:13;99836.25;;;1.39
69186;BMP280;56298;49.246;9.410;2023-12-07T03:04:39;99843.91;;;1.32
69186;BMP280;56298;49.246;9.410;2023-12-07T03:07:04;99841.72;;;1.34
69186;BMP280;56298;49.246;9.410;2023-12-07T03:09:29;99839.00;;;1.34
69186;BMP280;56298;49.246;9.410;2023-12-07T03:11:54;99842.81;;;1.33
69186;BMP280;56298;49.246;9.410;2023-12-07T03:14:20;99845.78;;;1.31
69186;BMP280;56298;49.246;9.410;2023-12-07T03:16:45;99841.19;;;1.32
69186;BMP280;56298;49.246;9.410;2023-12-07T03:19:10;99841.94;;;1.38
69186;BMP280;56298;49.246;9.410;2023-12-07T03:21:39;99844.44;;;1.29
69186;BMP280;56298;49.246;9.410;2023-12-07T03:24:05;99840.13;;;1.28
69186;BMP280;56298;49.246;9.410;2023-12-07T03:26:31;99846.56;;;1.27
69186;BMP280;56298;49.246;9.410;2023-12-07T03:28:56;99851.72;;;1.28
69186;BMP280;56298;49.246;9.410;2023-12-07T03:31:21;99844.97;;;1.26
69186;BMP280;56298;49.246;9.410;2023-12-07T03:33:47;99844.47;;;1.13
69186;BMP280;56298;49.246;9.410;2023-12-07T03:36:12;99841.75;;;1.13
69186;BMP280;56298;49.246;9.410;2023-12-07T03:38:37;99834.44;;;1.19
69186;BMP280;56298;49.246;9.410;2023-12-07T03:41:02;99840.41;;;1.16
69186;BMP280;56298;49.246;9.410;2023-12-07T03:43:29;99847.44;;;1.07
69186;BMP280;56298;49.246;9.410;2023-12-07T03:45:54;99840.41;;;1.05
69186;BMP280;56298;49.246;9.410;2023-12-07T03:48:20;99844.75;;;1.07
69186;BMP280;56298;49.246;9.410;2023-12-07T03:50:45;99840.94;;;1.08
69186;BMP280;56298;49.246;9.410;2023-12-07T03:53:11;99841.75;;;1.03
69186;BMP280;56298;49.246;9.410;2023-12-07T03:55:36;99843.66;;;1.02
69186;BMP280;56298;49.246;9.410;2023-12-07T03:58:02;99847.44;;;1.01
69186;BMP280;56298;49.246;9.410;2023-12-07T04:00:27;99846.06;;;0.99
69186;BMP280;56298;49.246;9.410;2023-12-07T04:02:53;99848.50;;;0.95
69186;BMP280;56298;49.246;9.410;2023-12-07T04:05:18;99856.09;;;0.88
69186;BMP280;56298;49.246;9.410;2023-12-07T04:07:43;99864.19;;;0.88
69186;BMP280;56298;49.246;9.410;2023-12-07T04:10:09;99867.69;;;0.94
69186;BMP280;56298;49.246;9.410;2023-12-07T04:12:34;99874.16;;;1.08
69186;BMP280;56298;49.246;9.410;2023-12-07T04:14:59;99868.47;;;1.20
69186;BMP280;56298;49.246;9.410;2023-12-07T04:17:25;99871.47;;;1.24
69186;BMP280;56298;49.246;9.410;2023-12-07T04:19:50;99873.06;;;1.30
69186;BMP280;56298;49.246;9.410;2023-12-07T04:22:15;99873.56;;;1.37
69186;BMP280;56298;49.246;9.410;2023-12-07T04:24:41;99874.13;;;1.34
69186;BMP280;56298;49.246;9.410;2023-12-07T04:27:06;99878.97;;;1.37
69186;BMP280;56298;49.246;9.410;2023-12-07T04:29:31;99876.25;;;1.48
69186;BMP280;56298;49.246;9.410;2023-12-07T04:31:57;99878.13;;;1.47
69186;BMP280;56298;49.246;9.410;2023-12-07T04:34:22;99879.19;;;1.51
69186;BMP280;56298;49.246;9.410;2023-12-07T04:36:47;99877.84;;;1.54
69186;BMP280;56298;49.246;9.410;2023-12-07T04:39:12;99873.22;;;1.65
69186;BMP280;56298;49.246;9.410;2023-12-07T04:41:38;99879.44;;;1.70
69186;BMP280;56298;49.246;9.410;2023-12-07T04:44:03;99876.97;;;1.74
69186;BMP280;56298;49.246;9.410;2023-12-07T04:46:28;99877.50;;;1.81
69186;BMP280;56298;49.246;9.410;2023-12-07T04:48:54;99892.97;;;1.65
69186;BMP280;56298;49.246;9.410;2023-12-07T04:51:19;99880.81;;;1.47
69186;BMP280;56298;49.246;9.410;2023-12-07T04:53:45;99885.97;;;1.49
69186;BMP280;56298;49.246;9.410;2023-12-07T04:56:10;99886.78;;;1.49
69186;BMP280;56298;49.246;9.410;2023-12-07T04:58:36;99891.09;;;1.55
69186;BMP280;56298;49.246;9.410;2023-12-07T05:01:01;99875.94;;;1.60
69186;BMP280;56298;49.246;9.410;2023-12-07T05:03:27;99889.97;;;1.67
69186;BMP280;56298;49.246;9.410;2023-12-07T05:05:53;99882.41;;;1.69
69186;BMP280;56298;49.246;9.410;2023-12-07T05:08:18;99888.63;;;1.75
69186;BMP280;56298;49.246;9.410;2023-12-07T05:10:43;99884.56;;;1.67
69186;BMP280;56298;49.246;9.410;2023-12-07T05:13:09;99882.41;;;1.69
69186;BMP280;56298;49.246;9.410;2023-12-07T05:15:34;99886.47;;;1.66
69186;BMP280;56298;49.246;9.410;2023-12-07T05:17:59;99888.06;;;1.73
69186;BMP280;56298;49.246;9.410;2023-12-07T05:20:24;99887.50;;;1.81
69186;BMP280;56298;49.246;9.410;2023-12-07T05:22:52;99899.13;;;1.81
69186;BMP280;56298;49.246;9.410;2023-12-07T05:25:17;99896.88;;;1.94
69186;BMP280;56298;49.246;9.410;2023-12-07T05:27:43;99903.06;;;2.05
69186;BMP280;56298;49.246;9.410;2023-12-07T05:30:09;99900.09;;;2.06
69186;BMP280;56298;49.246;9.410;2023-12-07T05:32:34;99898.44;;;2.10
69186;BMP280;56298;49.246;9.410;2023-12-07T05:35:00;99895.47;;;2.07
69186;BMP280;56298;49.246;9.410;2023-12-07T05:37:25;99903.25;;;2.19
69186;BMP280;56298;49.246;9.410;2023-12-07T05:39:50;99900.81;;;2.28
69186;BMP280;56298;49.246;9.410;2023-12-07T05:42:15;99895.09;;;2.34
69186;BMP280;56298;49.246;9.410;2023-12-07T05:44:41;99901.59;;;2.33
69186;BMP280;56298;49.246;9.410;2023-12-07T05:47:06;99903.00;;;2.20
69186;BMP280;56298;49.246;9.410;2023-12-07T05:49:33;99901.91;;;2.16
69186;BMP280;56298;49.246;9.410;2023-12-07T05:51:58;99894.41;;;2.08
69186;BMP280;56298;49.246;9.410;2023-12-07T05:54:23;99900.56;;;2.19
69186;BMP280;56298;49.246;9.410;2023-12-07T05:56:48;99895.38;;;2.28
69186;BMP280;56298;49.246;9.410;2023-12-07T05:59:14;99898.00;;;2.38
69186;BMP280;56298;49.246;9.410;2023-12-07T06:01:39;99894.47;;;2.37
69186;BMP280;56298;49.246;9.410;2023-12-07T06:04:08;99900.84;;;2.22
69186;BMP280;56298;49.246;9.410;2023-12-07T06:06:33;99898.38;;;2.26
69186;BMP280;56298;49.246;9.410;2023-12-07T06:08:58;99895.72;;;2.16
69186;BMP280;56298;49.246;9.410;2023-12-07T06:11:24;99899.75;;;2.18
69186;BMP280;56298;49.246;9.410;2023-12-07T06:13:49;99897.00;;;2.29
69186;BMP280;56298;49.246;9.410;2023-12-07T06:16:14;99893.47;;;2.33
69186;BMP280;56298;49.246;9.410;2023-12-07T06:18:40;99902.66;;;2.32
69186;BMP280;56298;49.246;9.410;2023-12-07T06:21:05;99903.41;;;2.38
69186;BMP280;56298;49.246;9.410;2023-12-07T06:23:31;99897.09;;;2.13
69186;BMP280;56298;49.246;9.410;2023-12-07T06:25:56;99895.97;;;2.19
69186;BMP280;56298;49.246;9.410;2023-12-07T06:28:22;99901.09;;;2.21
69186;BMP280;56298;49.246;9.410;2023-12-07T06:30:47;99907.59;;;2.25
69186;BMP280;56298;49.246;9.410;2023-12-07T06:33:12;99907.03;;;2.23
69186;BMP280;56298;49.246;9.410;2023-12-07T06:35:38;99907.03;;;2.23
69186;BMP280;56298;49.246;9.410;2023-12-07T06:38:03;99905.66;;;2.25
69186;BMP280;56298;49.246;9.410;2023-12-07T06:40:29;99900.25;;;2.25
69186;BMP280;56298;49.246;9.410;2023-12-07T06:42:55;99899.19;;;2.27
69186;BMP280;56298;49.246;9.410;2023-12-07T06:45:20;99906.72;;;2.30
69186;BMP280;56298;49.246;9.410;2023-12-07T06:47:45;99903.69;;;2.36
69186;BMP280;56298;49.246;9.410;2023-12-07T06:50:10;99901.50;;;2.44
69186;BMP280;56298;49.246;9.410;2023-12-07T06:52:39;99912.06;;;2.45
69186;BMP280;56298;49.246;9.410;2023-12-07T06:55:05;99917.16;;;2.52
69186;BMP280;56298;49.246;9.410;2023-12-07T06:57:32;99913.59;;;2.57
69186;BMP280;56298;49.246;9.410;2023-12-07T06:59:57;99923.63;;;2.51
69186;BMP280;56298;49.246;9.410;2023-12-07T07:02:22;99914.13;;;2.59
69186;BMP280;56298;49.246;9.410;2023-12-07T07:04:48;99915.47;;;2.61
69186;BMP280;56298;49.246;9.410;2023-12-07T07:07:15;99919.28;;;2.55
69186;BMP280;56298;49.246;9.410;2023-12-07T07:09:41;99923.56;;;2.67
69186;BMP280;56298;49.246;9.410;2023-12-07T07:12:07;99918.66;;;2.69
69186;BMP280;56298;49.246;9.410;2023-12-07T07:14:32;99926.81;;;2.63
69186;BMP280;56298;49.246;9.410;2023-12-07T07:16:58;99920.56;;;2.68
69186;BMP280;56298;49.246;9.410;2023-12-07T07:19:23;99924.84;;;2.74
69186;BMP280;56298;49.246;9.410;2023-12-07T07:21:48;99928.09;;;2.71
69186;BMP280;56298;49.246;9.410;2023-12-07T07:24:14;99927.06;;;2.67
69186;BMP280;56298;49.246;9.410;2023-12-07T07:26:39;99923.75;;;2.75
69186;BMP280;56298;49.246;9.410;2023-12-07T07:29:05;99928.63;;;2.73
69186;BMP280;56298;49.246;9.410;2023-12-07T07:31:31;99925.63;;;2.75
69186;BMP280;56298;49.246;9.410;2023-12-07T07:33:56;99924.28;;;2.72
69186;BMP280;56298;49.246;9.410;2023-12-07T07:36:22;99930.50;;;2.78
69186;BMP280;56298;49.246;9.410;2023-12-07T07:38:47;99919.59;;;2.88
69186;BMP280;56298;49.246;9.410;2023-12-07T07:41:13;99925.59;;;2.85
69186;BMP280;56298;49.246;9.410;2023-12-07T07:43:38;99926.06;;;2.92
69186;BMP280;56298;49.246;9.410;2023-12-07T07:46:03;99927.16;;;2.91
69186;BMP280;56298;49.246;9.410;2023-12-07T07:48:29;99927.16;;;2.91
69186;BMP280;56298;49.246;9.410;2023-12-07T07:50:55;99930.38;;;2.94
69186;BMP280;56298;49.246;9.410;2023-12-07T07:53:20;99936.34;;;2.96
69186;BMP280;56298;49.246;9.410;2023-12-07T07:55:45;99935.25;;;2.97
69186;BMP280;56298;49.246;9.410;2023-12-07T07:58:10;99934.88;;;3.03
69186;BMP280;56298;49.246;9.410;2023-12-07T08:00:36;99940.00;;;3.10
69186;BMP280;56298;49.246;9.410;2023-12-07T08:03:01;99944.03;;;3.13
69186;BMP280;56298;49.246;9.410;2023-12-07T08:05:26;99949.09;;;3.25
69186;BMP280;56298;49.246;9.410;2023-12-07T08:07:52;99945.13;;;3.12
69186;BMP280;56298;49.246;9.410;2023-12-07T08:10:17;99943.84;;;3.04
69186;BMP280;56298;49.246;9.410;2023-12-07T08:12:42;99944.69;;;2.99
69186;BMP280;56298;49.246;9.410;2023-12-07T08:15:12;99951.16;;;3.03
69186;BMP280;56298;49.246;9.410;2023-12-07T08:17:40;99952.47;;;3.06
69186;BMP280;56298;49.246;9.410;2023-12-07T08:20:07;99947.97;;;2.96
69186;BMP280;56298;49.246;9.410;2023-12-07T08:22:34;99946.63;;;2.94
69186;BMP280;56298;49.246;9.410;2023-12-07T08:24:59;99939.44;;;3.08
69186;BMP280;56298;49.246;9.410;2023-12-07T08:27:25;99948.59;;;3.17
69186;BMP280;56298;49.246;9.410;2023-12-07T08:29:50;99948.69;;;3.37
69186;BMP280;56298;49.246;9.410;2023-12-07T08:32:15;99951.63;;;3.40
69186;BMP280;56298;49.246;9.410;2023-12-07T08:34:44;99938.16;;;3.59
69186;BMP280;56298;49.246;9.410;2023-12-07T08:37:09;99938.75;;;3.56
69186;BMP280;56298;49.246;9.410;2023-12-07T08:39:34;99949.44;;;3.72
69186;BMP280;56298;49.246;9.410;2023-12-07T08:42:00;99941.38;;;3.86
69186;BMP280;56298;49.246;9.410;2023-12-07T08:44:26;99937.78;;;3.91
69186;BMP280;56298;49.246;9.410;2023-12-07T08:46:51;99939.91;;;3.94
69186;BMP280;56298;49.246;9.410;2023-12-07T08:49:16;99940.91;;;4.03
69186;BMP280;56298;49.246;9.410;2023-12-07T08:51:41;99934.81;;;4.11
69186;BMP280;56298;49.246;9.410;2023-12-07T08:54:07;99940.19;;;4.17
69186;BMP280;56298;49.246;9.410;2023-12-07T08:56:32;99937.09;;;4.23
69186;BMP280;56298;49.246;9.410;2023-12-07T08:58:57;99936.16;;;4.33
69186;BMP280;56298;49.246;9.410;2023-12-07T09:01:22;99928.44;;;4.41
69186;BMP280;56298;49.246;9.410;2023-12-07T09:03:48;99938.81;;;4.38
69186;BMP280;56298;49.246;9.410;2023-12-07T09:06:13;99923.84;;;4.41
69186;BMP280;56298;49.246;9.410;2023-12-07T09:08:38;99918.66;;;4.59
69186;BMP280;56298;49.246;9.410;2023-12-07T09:11:03;99917.44;;;4.84
69186;BMP280;56298;49.246;9.410;2023-12-07T09:13:29;99916.19;;;4.62
69186;BMP280;56298;49.246;9.410;2023-12-07T09:15:54;99915.16;;;4.58
69186;BMP280;56298;49.246;9.410;2023-12-07T09:18:20;99923.72;;;4.65
69186;BMP280;56298;49.246;9.410;2023-12-07T09:20:45;99915.25;;;4.67
69186;BMP280;56298;49.246;9.410;2023-12-07T09:23:15;99915.91;;;4.78
69186;BMP280;56298;49.246;9.410;2023-12-07T09:25:41;99905.25;;;4.82
69186;BMP280;56298;49.246;9.410;2023-12-07T09:28:06;99901.22;;;4.79
69186;BMP280;56298;49.246;9.410;2023-12-07T09:30:31;99901.56;;;4.91
69186;BMP280;56298;49.246;9.410;2023-12-07T09:32:59;99899.91;;;4.76
69186;BMP280;56298;49.246;9.410;2023-12-07T09:35:24;99899.03;;;4.95
69186;BMP280;56298;49.246;9.410;2023-12-07T09:37:50;99899.94;;;5.04
69186;BMP280;56298;49.246;9.410;2023-12-07T09:40:20;99889.63;;;5.20
69186;BMP280;56298;49.246;9.410;2023-12-07T09:42:46;99881.47;;;5.34
69186;BMP280;56298;49.246;9.410;2023-12-07T09:45:12;99886.59;;;5.36
69186;BMP280;56298;49.246;9.410;2023-12-07T09:47:38;99880.25;;;5.41
69186;BMP280;56298;49.246;9.410;2023-12-07T09:50:06;99885.38;;;5.42
69186;BMP280;56298;49.246;9.410;2023-12-07T09:52:32;99880.56;;;5.25
69186;BMP280;56298;49.246;9.410;2023-12-07T09:54:57;99870.75;;;5.24
69186;BMP280;56298;49.246;9.410;2023-12-07T09:57:23;99872.88;;;5.41
69186;BMP280;56298;49.246;9.410;2023-12-07T09:59:48;99870.09;;;5.46
69186;BMP280;56298;49.246;9.410;2023-12-07T10:02:13;99876.41;;;5.42
69186;BMP280;56298;49.246;9.410;2023-12-07T10:04:39;99868.94;;;5.61
69186;BMP280;56298;49.246;9.410;2023-12-07T10:07:05;99881.94;;;5.65
69186;BMP280;56298;49.246;9.410;2023-12-07T10:09:34;99871.66;;;5.75
69186;BMP280;56298;49.246;9.410;2023-12-07T10:12:03;99875.31;;;5.57
69186;BMP280;56298;49.246;9.410;2023-12-07T10:14:29;99861.34;;;5.72
69186;BMP280;56298;49.246;9.410;2023-12-07T10:16:55;99870.19;;;5.92
69186;BMP280;56298;49.246;9.410;2023-12-07T10:19:21;99866.25;;;6.21
69186;BMP280;56298;49.246;9.410;2023-12-07T10:21:52;99863.34;;;6.40
69186;BMP280;56298;49.246;9.410;2023-12-07T10:24:19;99864.47;;;6.39
69186;BMP280;56298;49.246;9.410;2023-12-07T10:26:46;99856.75;;;6.55
69186;BMP280;56298;49.246;9.410;2023-12-07T10:29:12;99854.78;;;6.56
69186;BMP280;56298;49.246;9.410;2023-12-07T10:31:38;99849.56;;;6.60
69186;BMP280;56298;49.246;9.410;2023-12-07T10:34:04;99854.34;;;6.63
69186;BMP280;56298;49.246;9.410;2023-12-07T10:36:30;99847.28;;;6.62
69186;BMP280;56298;49.246;9.410;2023-12-07T10:38:56;99845.66;;;6.83
69186;BMP280;56298;49.246;9.410;2023-12-07T10:41:23;99839.22;;;6.79
69186;BMP280;56298;49.246;9.410;2023-12-07T10:43:52;99840.81;;;6.80
69186;BMP280;56298;49.246;9.410;2023-12-07T10:46:20;99835.97;;;7.09
69186;BMP280;56298;49.246;9.410;2023-12-07T10:48:45;99833.63;;;7.34
69186;BMP280;56298;49.246;9.410;2023-12-07T10:51:41;99819.69;;;7.53
69186;BMP280;56298;49.246;9.410;2023-12-07T10:54:06;99820.16;;;7.64
69186;BMP280;56298;49.246;9.410;2023-12-07T10:56:44;99814.38;;;7.65
69186;BMP280;56298;49.246;9.410;2023-12-07T10:59:10;99809.38;;;7.50
69186;BMP280;56298;49.246;9.410;2023-12-07T11:01:38;99811.66;;;7.57
69186;BMP280;56298;49.246;9.410;2023-12-07T11:04:04;99805.91;;;7.58
69186;BMP280;56298;49.246;9.410;2023-12-07T11:06:31;99804.59;;;7.82
69186;BMP280;56298;49.246;9.410;2023-12-07T11:08:59;99799.91;;;7.74
69186;BMP280;56298;49.246;9.410;2023-12-07T11:11:36;99796.38;;;7.73
69186;BMP280;56298;49.246;9.410;2023-12-07T11:14:06;99795.13;;;7.79
69186;BMP280;56298;49.246;9.410;2023-12-07T11:16:34;99790.78;;;7.70
69186;BMP280;56298;49.246;9.410;2023-12-07T11:19:00;99796.72;;;7.54
69186;BMP280;56298;49.246;9.410;2023-12-07T11:21:26;99801.09;;;7.73
69186;BMP280;56298;49.246;9.410;2023-12-07T11:23:55;99794.28;;;7.88
69186;BMP280;56298;49.246;9.410;2023-12-07T11:26:24;99786.09;;;7.88
69186;BMP280;56298;49.246;9.410;2023-12-07T11:28:50;99772.47;;;7.79
69186;BMP280;56298;49.246;9.410;2023-12-07T11:31:15;99768.31;;;7.55
69186;BMP280;56298;49.246;9.410;2023-12-07T11:33:43;99759.31;;;7.63
69186;BMP280;56298;49.246;9.410;2023-12-07T11:36:11;99758.34;;;7.68
69186;BMP280;56298;49.246;9.410;2023-12-07T11:38:38;99757.53;;;7.76
69186;BMP280;56298;49.246;9.410;2023-12-07T11:41:04;99760.41;;;7.62
69186;BMP280;56298;49.246;9.410;2023-12-07T11:45:58;99746.63;;;7.76
69186;BMP280;56298;49.246;9.410;2023-12-07T11:48:23;99749.19;;;7.82
69186;BMP280;56298;49.246;9.410;2023-12-07T11:53:26;99731.81;;;7.95
69186;BMP280;56298;49.246;9.410;2023-12-07T11:55:54;99732.63;;;7.96
69186;BMP280;56298;49.246;9.410;2023-12-07T11:58:19;99726.97;;;8.01
69186;BMP280;56298;49.246;9.410;2023-12-07T12:00:45;99721.53;;;8.01
69186;BMP280;56298;49.246;9.410;2023-12-07T12:03:15;99725.88;;;7.93
69186;BMP280;56298;49.246;9.410;2023-12-07T12:05:41;99717.91;;;7.70
69186;BMP280;56298;49.246;9.410;2023-12-07T12:08:06;99703.41;;;7.78
69186;BMP280;56298;49.246;9.410;2023-12-07T12:10:32;99710.31;;;7.76
69186;BMP280;56298;49.246;9.410;2023-12-07T12:13:01;99702.50;;;7.57
69186;BMP280;56298;49.246;9.410;2023-12-07T12:15:27;99700.59;;;7.48
69186;BMP280;56298;49.246;9.410;2023-12-07T12:17:55;99684.53;;;7.56
69186;BMP280;56298;49.246;9.410;2023-12-07T12:20:21;99691.09;;;7.55
69186;BMP280;56298;49.246;9.410;2023-12-07T12:22:46;99686.94;;;7.22
69186;BMP280;56298;49.246;9.410;2023-12-07T12:25:11;99680.06;;;7.24
69186;BMP280;56298;49.246;9.410;2023-12-07T12:27:37;99669.63;;;7.35
69186;BMP280;56298;49.246;9.410;2023-12-07T12:30:03;99666.56;;;7.28
69186;BMP280;56298;49.246;9.410;2023-12-07T12:32:42;99658.56;;;7.23
69186;BMP280;56298;49.246;9.410;2023-12-07T12:35:08;99659.03;;;7.07
69186;BMP280;56298;49.246;9.410;2023-12-07T12:37:33;99643.13;;;6.92
69186;BMP280;56298;49.246;9.410;2023-12-07T12:40:05;99646.00;;;6.87
69186;BMP280;56298;49.246;9.410;2023-12-07T12:42:30;99637.00;;;6.77
69186;BMP280;56298;49.246;9.410;2023-12-07T12:44:56;99637.50;;;6.88
69186;BMP280;56298;49.246;9.410;2023-12-07T12:47:22;99642.50;;;6.86
69186;BMP280;56298;49.246;9.410;2023-12-07T12:49:47;99642.66;;;6.90
69186;BMP280;56298;49.246;9.410;2023-12-07T12:52:15;99638.78;;;6.91
69186;BMP280;56298;49.246;9.410;2023-12-07T12:54:44;99634.31;;;6.68
69186;BMP280;56298;49.246;9.410;2023-12-07T12:57:10;99629.59;;;6.60
69186;BMP280;56298;49.246;9.410;2023-12-07T12:59:35;99633.47;;;6.50
69186;BMP280;56298;49.246;9.410;2023-12-07T13:02:02;99631.16;;;6.26
69186;BMP280;56298;49.246;9.410;2023-12-07T13:04:29;99624.47;;;6.41
69186;BMP280;56298;49.246;9.410;2023-12-07T13:06:55;99627.03;;;6.46
69186;BMP280;56298;49.246;9.410;2023-12-07T13:09:20;99621.56;;;6.28
69186;BMP280;56298;49.246;9.410;2023-12-07T13:11:46;99629.50;;;6.16
69186;BMP280;56298;49.246;9.410;2023-12-07T13:14:12;99620.31;;;6.03
69186;BMP280;56298;49.246;9.410;2023-12-07T13:16:37;99615.03;;;6.07
69186;BMP280;56298;49.246;9.410;2023-12-07T13:19:03;99612.63;;;5.96
69186;BMP280;56298;49.246;9.410;2023-12-07T13:21:28;99615.97;;;5.93
69186;BMP280;56298;49.246;9.410;2023-12-07T13:23:53;99617.56;;;5.94
69186;BMP280;56298;49.246;9.410;2023-12-07T13:26:19;99613.31;;;5.70
69186;BMP280;56298;49.246;9.410;2023-12-07T13:28:45;99614.44;;;5.78
69186;BMP280;56298;49.246;9.410;2023-12-07T13:31:11;99608.19;;;5.78
69186;BMP280;56298;49.246;9.410;2023-12-07T13:33:36;99599.03;;;5.73
69186;BMP280;56298;49.246;9.410;2023-12-07T13:36:02;99603.84;;;5.68
69186;BMP280;56298;49.246;9.410;2023-12-07T13:38:27;99600.25;;;5.58
69186;BMP280;56298;49.246;9.410;2023-12-07T13:40:55;99602.34;;;5.61
69186;BMP280;56298;49.246;9.410;2023-12-07T13:43:21;99599.09;;;5.51
69186;BMP280;56298;49.246;9.410;2023-12-07T13:45:49;99590.06;;;5.41
69186;BMP280;56298;49.246;9.410;2023-12-07T13:48:14;99595.69;;;5.45
69186;BMP280;56298;49.246;9.410;2023-12-07T13:50:40;99598.34;;;5.36
69186;BMP280;56298;49.246;9.410;2023-12-07T13:53:06;99592.16;;;5.44
69186;BMP280;56298;49.246;9.410;2023-12-07T13:55:35;99593.56;;;5.33
69186;BMP280;56298;49.246;9.410;2023-12-07T13:58:01;99597.06;;;5.33
69186;BMP280;56298;49.246;9.410;2023-12-07T14:00:26;99596.84;;;5.21
69186;BMP280;56298;49.246;9.410;2023-12-07T14:02:52;99595.72;;;5.08
69186;BMP280;56298;49.246;9.410;2023-12-07T14:05:17;99596.13;;;5.15
69186;BMP280;56298;49.246;9.410;2023-12-07T14:07:43;99603.25;;;5.02
69186;BMP280;56298;49.246;9.410;2023-12-07T14:10:09;99603.25;;;4.88
69186;BMP280;56298;49.246;9.410;2023-12-07T14:12:34;99598.03;;;4.92
69186;BMP280;56298;49.246;9.410;2023-12-07T14:14:59;99597.03;;;4.88
69186;BMP280;56298;49.246;9.410;2023-12-07T14:17:24;99604.50;;;4.82
69186;BMP280;56298;49.246;9.410;2023-12-07T14:19:50;99608.69;;;4.88